createdAt,value
2016-08-25T00:00:46.439Z,0
2016-08-25T00:01:46.462Z,0
2016-08-25T00:02:46.467Z,0
2016-08-25T00:03:46.454Z,0
2016-08-25T00:04:46.431Z,0
2016-08-25T00:05:47.129Z,0
2016-08-25T00:06:46.439Z,0
2016-08-25T00:07:46.427Z,0
2016-08-25T00:08:46.424Z,0
2016-08-25T00:09:46.427Z,0
2016-08-25T00:10:47.151Z,0
2016-08-25T00:11:46.400Z,0
2016-08-25T00:12:46.399Z,0
2016-08-25T00:13:46.400Z,0
2016-08-25T00:14:46.407Z,0
2016-08-25T00:15:46.396Z,0
2016-08-25T00:16:46.396Z,0
2016-08-25T00:17:46.390Z,0
2016-08-25T00:18:46.404Z,0
2016-08-25T00:19:46.384Z,0
2016-08-25T00:20:46.381Z,0
2016-08-25T00:21:46.378Z,0
2016-08-25T00:22:46.363Z,0
2016-08-25T00:23:46.362Z,0
2016-08-25T00:24:46.365Z,0
2016-08-25T00:25:46.342Z,0
2016-08-25T00:26:46.353Z,0
2016-08-25T00:27:46.350Z,0
2016-08-25T00:28:46.327Z,0
2016-08-25T00:29:46.343Z,0
2016-08-25T00:30:46.319Z,0
2016-08-25T00:31:46.334Z,0
2016-08-25T00:32:46.322Z,0
2016-08-25T00:33:46.339Z,0
2016-08-25T00:34:46.316Z,0
2016-08-25T00:35:46.285Z,0
2016-08-25T00:36:46.318Z,0
2016-08-25T00:37:46.292Z,0
2016-08-25T00:38:46.312Z,0
2016-08-25T00:39:46.278Z,0
2016-08-25T00:40:46.286Z,0
2016-08-25T00:41:46.293Z,0
2016-08-25T00:42:46.296Z,0
2016-08-25T00:43:46.280Z,0
2016-08-25T00:44:46.253Z,0
2016-08-25T00:45:46.284Z,0
2016-08-25T00:46:46.266Z,0
2016-08-25T00:47:46.278Z,0
2016-08-25T00:48:46.236Z,0
2016-08-25T00:49:46.254Z,0
2016-08-25T00:50:46.268Z,0
2016-08-25T00:51:46.243Z,0
2016-08-25T00:52:46.254Z,0
2016-08-25T00:53:46.243Z,0
2016-08-25T00:54:46.227Z,0
2016-08-25T00:55:46.212Z,0
2016-08-25T00:56:46.213Z,0
2016-08-25T00:57:46.217Z,0
2016-08-25T00:58:46.197Z,0
2016-08-25T00:59:46.202Z,0
2016-08-25T01:00:46.206Z,0
2016-08-25T01:01:46.206Z,0
2016-08-25T01:02:46.199Z,0
2016-08-25T01:03:46.172Z,0
2016-08-25T01:04:46.163Z,0
2016-08-25T01:05:46.199Z,0
2016-08-25T01:06:46.173Z,0
2016-08-25T01:07:46.148Z,0
2016-08-25T01:08:46.172Z,0
2016-08-25T01:09:46.183Z,0
2016-08-25T01:10:46.170Z,0
2016-08-25T01:11:46.144Z,0
2016-08-25T01:12:46.149Z,0
2016-08-25T01:13:46.173Z,0
2016-08-25T01:14:46.157Z,0
2016-08-25T01:15:46.156Z,0
2016-08-25T01:16:46.147Z,0
2016-08-25T01:17:46.130Z,0
2016-08-25T01:18:46.151Z,0
2016-08-25T01:19:46.137Z,0
2016-08-25T01:20:46.111Z,0
2016-08-25T01:21:46.096Z,0
2016-08-25T01:22:46.102Z,0
2016-08-25T01:23:46.138Z,0
2016-08-25T01:24:46.823Z,0
2016-08-25T01:25:46.101Z,0
2016-08-25T01:26:46.097Z,0
2016-08-25T01:27:46.083Z,0
2016-08-25T01:28:46.086Z,0
2016-08-25T01:29:46.083Z,0
2016-08-25T01:30:46.087Z,0
2016-08-25T01:31:46.060Z,0
2016-08-25T01:32:46.057Z,0
2016-08-25T01:33:46.058Z,0
2016-08-25T01:34:46.059Z,0
2016-08-25T01:35:46.067Z,0
2016-08-25T01:36:46.041Z,0
2016-08-25T01:37:46.074Z,0
2016-08-25T01:38:46.054Z,0
2016-08-25T01:39:46.044Z,0
2016-08-25T01:40:46.019Z,0
2016-08-25T01:41:46.033Z,0
2016-08-25T01:42:46.019Z,0
2016-08-25T01:43:46.020Z,0
2016-08-25T01:44:46.028Z,0
2016-08-25T01:45:46.012Z,0
2016-08-25T01:46:46.033Z,0
2016-08-25T01:47:46.012Z,0
2016-08-25T01:48:46.005Z,0
2016-08-25T01:49:46.018Z,0
2016-08-25T01:50:46.009Z,0
2016-08-25T01:51:45.981Z,0
2016-08-25T01:52:46.710Z,0
2016-08-25T01:53:45.992Z,0
2016-08-25T01:54:45.986Z,0
2016-08-25T01:55:46.005Z,0
2016-08-25T01:56:45.987Z,0
2016-08-25T01:57:45.970Z,0
2016-08-25T01:58:45.971Z,0
2016-08-25T01:59:45.970Z,0
2016-08-25T02:00:45.951Z,0
2016-08-25T02:01:45.984Z,0
2016-08-25T02:02:45.935Z,0
2016-08-25T02:03:45.932Z,0
2016-08-25T02:04:45.942Z,0
2016-08-25T02:05:45.953Z,0
2016-08-25T02:06:46.075Z,0
2016-08-25T02:07:45.929Z,0
2016-08-25T02:08:45.925Z,0
2016-08-25T02:09:45.930Z,0
2016-08-25T02:10:45.930Z,0
2016-08-25T02:11:45.918Z,0
2016-08-25T02:12:45.895Z,0
2016-08-25T02:13:45.905Z,0
2016-08-25T02:14:45.903Z,0
2016-08-25T02:15:45.911Z,0
2016-08-25T02:16:45.885Z,0
2016-08-25T02:17:45.890Z,0
2016-08-25T02:18:45.902Z,0
2016-08-25T02:19:45.894Z,0
2016-08-25T02:20:45.890Z,0
2016-08-25T02:21:45.902Z,0
2016-08-25T02:22:45.886Z,0
2016-08-25T02:23:45.879Z,0
2016-08-25T02:24:45.854Z,0
2016-08-25T02:25:45.873Z,0
2016-08-25T02:26:45.868Z,0
2016-08-25T02:27:45.837Z,0
2016-08-25T02:28:45.829Z,0
2016-08-25T02:29:45.846Z,0
2016-08-25T02:30:45.812Z,0
2016-08-25T02:31:45.874Z,0
2016-08-25T02:32:45.842Z,0
2016-08-25T02:33:45.838Z,0
2016-08-25T02:34:45.823Z,0
2016-08-25T02:35:45.805Z,0
2016-08-25T02:36:45.821Z,0
2016-08-25T02:37:45.816Z,0
2016-08-25T02:38:45.809Z,0
2016-08-25T02:39:45.822Z,0
2016-08-25T02:40:45.791Z,0
2016-08-25T02:41:45.783Z,0
2016-08-25T02:42:45.790Z,0
2016-08-25T02:43:45.798Z,0
2016-08-25T02:44:45.785Z,0
2016-08-25T02:45:45.771Z,0
2016-08-25T02:46:45.787Z,0
2016-08-25T02:47:46.498Z,0
2016-08-25T02:48:45.796Z,0
2016-08-25T02:49:45.763Z,0
2016-08-25T02:50:46.472Z,0
2016-08-25T02:51:45.781Z,0
2016-08-25T02:52:45.739Z,0
2016-08-25T02:53:45.731Z,0
2016-08-25T02:54:45.743Z,0
2016-08-25T02:55:45.727Z,0
2016-08-25T02:56:45.738Z,0
2016-08-25T02:57:45.743Z,0
2016-08-25T02:58:45.733Z,0
2016-08-25T02:59:45.715Z,0
2016-08-25T03:00:45.748Z,0
2016-08-25T03:01:45.721Z,0
2016-08-25T03:02:45.702Z,0
2016-08-25T03:03:45.694Z,0
2016-08-25T03:04:45.705Z,0
2016-08-25T03:05:45.705Z,0
2016-08-25T03:06:45.832Z,0
2016-08-25T03:07:45.701Z,0
2016-08-25T03:08:45.711Z,0
2016-08-25T03:09:45.695Z,0
2016-08-25T03:10:45.681Z,0
2016-08-25T03:11:45.671Z,0
2016-08-25T03:12:45.673Z,0
2016-08-25T03:13:45.642Z,0
2016-08-25T03:14:45.662Z,0
2016-08-25T03:15:46.359Z,0
2016-08-25T03:16:45.646Z,0
2016-08-25T03:17:45.645Z,0
2016-08-25T03:18:45.643Z,0
2016-08-25T03:19:45.639Z,0
2016-08-25T03:20:46.343Z,0
2016-08-25T03:21:45.640Z,0
2016-08-25T03:22:45.638Z,0
2016-08-25T03:23:45.639Z,0
2016-08-25T03:24:45.630Z,0
2016-08-25T03:25:45.628Z,0
2016-08-25T03:26:45.615Z,0
2016-08-25T03:27:46.352Z,0
2016-08-25T03:28:45.583Z,0
2016-08-25T03:29:45.580Z,0
2016-08-25T03:30:45.622Z,0
2016-08-25T03:31:45.585Z,0
2016-08-25T03:32:45.595Z,0
2016-08-25T03:33:45.609Z,0
2016-08-25T03:34:45.577Z,0
2016-08-25T03:35:45.581Z,0
2016-08-25T03:36:45.582Z,0
2016-08-25T03:37:45.560Z,0
2016-08-25T03:38:45.557Z,0
2016-08-25T03:39:45.600Z,0
2016-08-25T03:40:45.566Z,0
2016-08-25T03:41:45.549Z,0
2016-08-25T03:42:45.560Z,0
2016-08-25T03:43:45.534Z,0
2016-08-25T03:44:45.532Z,0
2016-08-25T03:45:45.546Z,0
2016-08-25T03:46:45.547Z,0
2016-08-25T03:47:45.556Z,0
2016-08-25T03:48:45.505Z,0
2016-08-25T03:49:45.521Z,4
2016-08-25T03:50:45.536Z,0
2016-08-25T03:51:45.508Z,0
2016-08-25T03:52:45.515Z,4
2016-08-25T03:53:45.506Z,0
2016-08-25T03:54:45.510Z,4
2016-08-25T03:55:45.502Z,4
2016-08-25T03:56:45.480Z,8
2016-08-25T03:57:45.496Z,8
2016-08-25T03:58:45.504Z,8
2016-08-25T03:59:45.484Z,12
2016-08-25T04:00:45.473Z,12
2016-08-25T04:01:45.479Z,16
2016-08-25T04:02:45.457Z,20
2016-08-25T04:03:45.473Z,24
2016-08-25T04:04:45.436Z,28
2016-08-25T04:05:45.435Z,36
2016-08-25T04:06:45.454Z,44
2016-08-25T04:07:45.460Z,52
2016-08-25T04:08:45.445Z,60
2016-08-25T04:09:45.425Z,72
2016-08-25T04:10:45.432Z,88
2016-08-25T04:11:45.441Z,104
2016-08-25T04:12:45.408Z,120
2016-08-25T04:13:46.105Z,140
2016-08-25T04:14:45.401Z,164
2016-08-25T04:15:45.418Z,188
2016-08-25T04:16:45.392Z,216
2016-08-25T04:17:45.432Z,244
2016-08-25T04:18:45.410Z,280
2016-08-25T04:19:45.395Z,316
2016-08-25T04:20:45.395Z,360
2016-08-25T04:21:45.397Z,400
2016-08-25T04:22:45.395Z,448
2016-08-25T04:23:45.375Z,492
2016-08-25T04:24:45.370Z,544
2016-08-25T04:25:45.368Z,596
2016-08-25T04:26:45.358Z,652
2016-08-25T04:27:45.363Z,712
2016-08-25T04:28:45.332Z,768
2016-08-25T04:29:45.360Z,828
2016-08-25T04:30:45.347Z,892
2016-08-25T04:31:45.332Z,956
2016-08-25T04:32:45.324Z,1016
2016-08-25T04:33:45.342Z,1080
2016-08-25T04:34:45.343Z,1148
2016-08-25T04:35:45.311Z,1216
2016-08-25T04:36:45.313Z,1284
2016-08-25T04:37:45.341Z,1348
2016-08-25T04:38:45.291Z,1412
2016-08-25T04:39:45.308Z,1476
2016-08-25T04:40:45.287Z,1544
2016-08-25T04:41:45.297Z,1612
2016-08-25T04:42:45.283Z,1672
2016-08-25T04:43:45.287Z,1736
2016-08-25T04:44:45.293Z,1796
2016-08-25T04:45:45.259Z,1860
2016-08-25T04:46:45.306Z,2004
2016-08-25T04:47:45.259Z,2212
2016-08-25T04:48:45.271Z,2296
2016-08-25T04:49:45.268Z,2364
2016-08-25T04:50:45.247Z,2348
2016-08-25T04:51:45.262Z,2376
2016-08-25T04:52:45.277Z,2436
2016-08-25T04:53:45.256Z,2496
2016-08-25T04:54:45.219Z,2560
2016-08-25T04:55:45.243Z,2620
2016-08-25T04:56:45.237Z,2700
2016-08-25T04:57:45.224Z,2844
2016-08-25T04:58:45.211Z,3424
2016-08-25T04:59:45.211Z,4132
2016-08-25T05:00:45.219Z,4316
2016-08-25T05:01:45.188Z,4444
2016-08-25T05:02:45.221Z,4588
2016-08-25T05:03:45.211Z,4732
2016-08-25T05:04:45.203Z,4904
2016-08-25T05:05:45.223Z,5112
2016-08-25T05:06:45.191Z,5552
2016-08-25T05:07:45.226Z,5956
2016-08-25T05:08:45.176Z,5992
2016-08-25T05:09:45.183Z,5992
2016-08-25T05:10:45.166Z,5996
2016-08-25T05:11:45.151Z,6060
2016-08-25T05:12:45.158Z,6084
2016-08-25T05:13:45.161Z,6200
2016-08-25T05:14:45.177Z,6364
2016-08-25T05:15:45.157Z,6892
2016-08-25T05:16:45.162Z,7372
2016-08-25T05:17:45.180Z,7156
2016-08-25T05:18:45.148Z,7048
2016-08-25T05:19:45.148Z,7084
2016-08-25T05:20:45.161Z,7592
2016-08-25T05:21:45.123Z,9028
2016-08-25T05:22:45.119Z,9012
2016-08-25T05:23:45.137Z,8884
2016-08-25T05:24:45.136Z,9284
2016-08-25T05:25:45.121Z,8216
2016-08-25T05:26:45.115Z,7532
2016-08-25T05:27:45.104Z,7888
2016-08-25T05:28:45.123Z,8304
2016-08-25T05:29:45.129Z,8136
2016-08-25T05:30:45.103Z,8844
2016-08-25T05:31:45.103Z,10744
2016-08-25T05:32:45.138Z,10052
2016-08-25T05:33:45.107Z,8348
2016-08-25T05:34:45.102Z,8524
2016-08-25T05:35:45.080Z,8776
2016-08-25T05:36:45.113Z,8700
2016-08-25T05:37:45.113Z,9056
2016-08-25T05:38:45.083Z,9920
2016-08-25T05:39:45.090Z,11392
2016-08-25T05:40:45.106Z,13276
2016-08-25T05:41:45.103Z,15776
2016-08-25T05:42:45.081Z,14184
2016-08-25T05:43:45.062Z,11280
2016-08-25T05:44:45.070Z,11124
2016-08-25T05:45:45.059Z,11616
2016-08-25T05:46:45.767Z,10992
2016-08-25T05:47:45.047Z,16160
2016-08-25T05:48:45.041Z,18880
2016-08-25T05:49:45.043Z,16576
2016-08-25T05:50:45.061Z,16448
2016-08-25T05:51:45.064Z,15776
2016-08-25T05:52:45.056Z,16672
2016-08-25T05:53:45.031Z,17568
2016-08-25T05:54:45.064Z,18656
2016-08-25T05:55:45.078Z,21376
2016-08-25T05:56:45.019Z,20640
2016-08-25T05:57:45.047Z,18656
2016-08-25T05:58:45.052Z,19328
2016-08-25T05:59:45.046Z,22816
2016-08-25T06:00:45.017Z,24128
2016-08-25T06:01:45.018Z,23232
2016-08-25T06:02:45.047Z,24544
2016-08-25T06:03:45.007Z,23968
2016-08-25T06:04:45.013Z,22496
2016-08-25T06:05:45.030Z,22208
2016-08-25T06:06:45.011Z,27264
2016-08-25T06:07:45.026Z,34144
2016-08-25T06:08:45.027Z,32000
2016-08-25T06:09:45.013Z,25952
2016-08-25T06:10:44.998Z,32448
2016-08-25T06:11:45.698Z,34112
2016-08-25T06:12:45.020Z,26816
2016-08-25T06:13:44.996Z,28288
2016-08-25T06:14:45.012Z,28448
2016-08-25T06:15:44.993Z,25824
2016-08-25T06:16:44.992Z,31552
2016-08-25T06:17:45.002Z,30432
2016-08-25T06:18:44.990Z,31104
2016-08-25T06:19:44.974Z,38304
2016-08-25T06:20:44.976Z,39520
2016-08-25T06:21:45.001Z,32448
2016-08-25T06:22:44.963Z,28064
2016-08-25T06:23:44.982Z,23968
2016-08-25T06:24:44.988Z,23776
2016-08-25T06:25:44.986Z,30368
2016-08-25T06:26:44.972Z,34240
2016-08-25T06:27:44.961Z,35168
2016-08-25T06:28:44.981Z,34496
2016-08-25T06:29:44.965Z,35744
2016-08-25T06:30:44.977Z,34304
2016-08-25T06:31:44.943Z,33824
2016-08-25T06:32:44.950Z,32800
2016-08-25T06:33:44.957Z,30944
2016-08-25T06:34:44.962Z,33536
2016-08-25T06:35:44.973Z,35072
2016-08-25T06:36:44.983Z,37952
2016-08-25T06:37:44.956Z,43040
2016-08-25T06:38:44.928Z,40896
2016-08-25T06:39:44.956Z,35168
2016-08-25T06:40:44.934Z,36480
2016-08-25T06:41:45.643Z,33856
2016-08-25T06:42:44.953Z,35360
2016-08-25T06:43:44.965Z,38560
2016-08-25T06:44:44.964Z,37600
2016-08-25T06:45:44.941Z,38592
2016-08-25T06:46:44.914Z,37408
2016-08-25T06:47:44.941Z,35712
2016-08-25T06:48:44.928Z,39168
2016-08-25T06:49:44.928Z,42624
2016-08-25T06:50:44.939Z,41472
2016-08-25T06:51:44.937Z,43328
2016-08-25T06:52:44.925Z,39008
2016-08-25T06:53:44.924Z,40544
2016-08-25T06:54:44.929Z,42464
2016-08-25T06:55:44.925Z,47712
2016-08-25T06:56:44.946Z,45280
2016-08-25T06:57:44.947Z,33728
2016-08-25T06:58:44.937Z,26048
2016-08-25T06:59:44.936Z,22976
2016-08-25T07:00:44.909Z,22816
2016-08-25T07:01:44.924Z,30496
2016-08-25T07:02:44.912Z,45984
2016-08-25T07:03:44.927Z,52448
2016-08-25T07:04:44.926Z,45568
2016-08-25T07:05:44.955Z,48096
2016-08-25T07:06:44.943Z,47904
2016-08-25T07:07:45.681Z,45664
2016-08-25T07:08:44.946Z,48288
2016-08-25T07:09:44.943Z,51936
2016-08-25T07:10:44.922Z,47776
2016-08-25T07:11:44.944Z,49856
2016-08-25T07:12:44.922Z,44928
2016-08-25T07:13:44.937Z,40416
2016-08-25T07:14:44.927Z,53216
2016-08-25T07:15:44.921Z,53184
2016-08-25T07:16:44.956Z,42688
2016-08-25T07:17:44.950Z,46176
2016-08-25T07:18:45.668Z,45728
2016-08-25T07:19:44.924Z,50368
2016-08-25T07:20:44.928Z,50016
2016-08-25T07:21:44.930Z,39840
2016-08-25T07:22:44.969Z,44352
2016-08-25T07:23:44.953Z,50432
2016-08-25T07:24:44.961Z,52960
2016-08-25T07:25:44.949Z,47264
2016-08-25T07:26:44.958Z,51328
2016-08-25T07:27:44.966Z,56032
2016-08-25T07:28:44.976Z,51232
2016-08-25T07:29:44.979Z,56096
2016-08-25T07:30:44.972Z,52320
2016-08-25T07:31:44.990Z,35552
2016-08-25T07:32:44.975Z,27904
2016-08-25T07:33:44.979Z,32384
2016-08-25T07:34:44.960Z,51296
2016-08-25T07:35:44.993Z,61152
2016-08-25T07:36:44.972Z,54208
2016-08-25T07:37:44.982Z,56160
2016-08-25T07:38:44.993Z,52832
2016-08-25T07:39:44.982Z,57056
2016-08-25T07:40:44.997Z,54304
2016-08-25T07:41:44.969Z,56000
2016-08-25T07:42:45.011Z,61472
2016-08-25T07:43:45.004Z,58080
2016-08-25T07:44:44.970Z,53824
2016-08-25T07:45:44.974Z,55040
2016-08-25T07:46:44.971Z,57312
2016-08-25T07:47:44.999Z,55296
2016-08-25T07:48:45.010Z,58976
2016-08-25T07:49:44.996Z,63616
2016-08-25T07:50:44.995Z,63296
2016-08-25T07:51:45.015Z,56288
2016-08-25T07:52:45.008Z,45600
2016-08-25T07:53:45.003Z,42080
2016-08-25T07:54:45.046Z,46784
2016-08-25T07:55:45.021Z,53280
2016-08-25T07:56:45.043Z,55872
2016-08-25T07:57:45.040Z,56832
2016-08-25T07:58:45.003Z,66976
2016-08-25T07:59:45.004Z,74848
2016-08-25T08:00:45.016Z,66080
2016-08-25T08:01:45.020Z,58176
2016-08-25T08:02:45.046Z,56128
2016-08-25T08:03:45.014Z,57952
2016-08-25T08:04:45.720Z,68448
2016-08-25T08:05:45.027Z,73632
2016-08-25T08:06:45.019Z,74240
2016-08-25T08:07:45.178Z,67808
2016-08-25T08:08:45.017Z,61664
2016-08-25T08:09:45.048Z,59840
2016-08-25T08:10:45.046Z,51328
2016-08-25T08:11:45.047Z,50944
2016-08-25T08:12:45.031Z,54816
2016-08-25T08:13:45.031Z,63200
2016-08-25T08:14:45.078Z,67104
2016-08-25T08:15:45.043Z,69792
2016-08-25T08:16:45.047Z,80704
2016-08-25T08:17:45.051Z,80576
2016-08-25T08:18:45.023Z,82880
2016-08-25T08:19:45.070Z,81920
2016-08-25T08:20:45.057Z,83136
2016-08-25T08:21:45.055Z,81600
2016-08-25T08:22:45.084Z,78112
2016-08-25T08:23:45.056Z,75232
2016-08-25T08:24:45.071Z,78560
2016-08-25T08:25:45.040Z,80128
2016-08-25T08:26:45.739Z,80064
2016-08-25T08:27:45.078Z,72448
2016-08-25T08:28:45.058Z,79136
2016-08-25T08:29:45.039Z,76608
2016-08-25T08:30:45.040Z,81856
2016-08-25T08:31:45.075Z,96896
2016-08-25T08:32:45.048Z,93952
2016-08-25T08:33:45.074Z,87328
2016-08-25T08:34:45.788Z,84128
2016-08-25T08:35:45.076Z,83520
2016-08-25T08:36:45.078Z,77344
2016-08-25T08:37:45.080Z,71520
2016-08-25T08:38:45.082Z,80832
2016-08-25T08:39:45.084Z,93600
2016-08-25T08:40:45.095Z,89600
2016-08-25T08:41:45.073Z,71552
2016-08-25T08:42:45.115Z,62528
2016-08-25T08:43:45.079Z,70592
2016-08-25T08:44:45.098Z,90304
2016-08-25T08:45:45.106Z,95200
2016-08-25T08:46:45.075Z,67744
2016-08-25T08:47:45.078Z,55424
2016-08-25T08:48:45.093Z,74208
2016-08-25T08:49:45.089Z,80128
2016-08-25T08:50:45.086Z,74592
2016-08-25T08:51:45.095Z,84672
2016-08-25T08:52:45.097Z,97536
2016-08-25T08:53:45.103Z,104288
2016-08-25T08:54:45.093Z,113664
2016-08-25T08:55:45.095Z,116256
2016-08-25T08:56:45.076Z,112576
2016-08-25T08:57:45.098Z,105056
2016-08-25T08:58:45.113Z,95488
2016-08-25T08:59:45.097Z,89856
2016-08-25T09:00:45.093Z,86464
2016-08-25T09:01:45.101Z,86016
2016-08-25T09:02:45.121Z,88096
2016-08-25T09:03:45.113Z,89920
2016-08-25T09:04:45.098Z,90144
2016-08-25T09:05:45.096Z,89408
2016-08-25T09:06:45.076Z,90848
2016-08-25T09:07:45.209Z,91488
2016-08-25T09:08:45.109Z,90944
2016-08-25T09:09:45.100Z,94272
2016-08-25T09:10:45.098Z,89664
2016-08-25T09:11:45.109Z,64000
2016-08-25T09:12:45.078Z,56736
2016-08-25T09:13:45.078Z,81024
2016-08-25T09:14:45.116Z,95840
2016-08-25T09:15:45.099Z,97280
2016-08-25T09:16:45.084Z,97440
2016-08-25T09:17:45.101Z,98784
2016-08-25T09:18:45.080Z,98336
2016-08-25T09:19:45.086Z,96544
2016-08-25T09:20:45.110Z,95232
2016-08-25T09:21:45.090Z,92928
2016-08-25T09:22:45.103Z,91328
2016-08-25T09:23:45.097Z,90240
2016-08-25T09:24:45.127Z,88672
2016-08-25T09:25:45.084Z,89408
2016-08-25T09:26:45.108Z,89760
2016-08-25T09:27:45.085Z,87872
2016-08-25T09:28:45.100Z,85024
2016-08-25T09:29:45.112Z,80640
2016-08-25T09:30:45.082Z,81536
2016-08-25T09:31:45.088Z,83136
2016-08-25T09:32:45.085Z,81632
2016-08-25T09:33:45.067Z,79520
2016-08-25T09:34:45.114Z,79872
2016-08-25T09:35:45.108Z,81312
2016-08-25T09:36:45.081Z,81472
2016-08-25T09:37:45.113Z,81408
2016-08-25T09:38:45.090Z,81792
2016-08-25T09:39:45.089Z,83104
2016-08-25T09:40:45.122Z,84128
2016-08-25T09:41:45.096Z,85184
2016-08-25T09:42:45.101Z,86688
2016-08-25T09:43:45.076Z,87840
2016-08-25T09:44:45.115Z,86880
2016-08-25T09:45:45.067Z,84000
2016-08-25T09:46:45.783Z,79840
2016-08-25T09:47:45.091Z,77248
2016-08-25T09:48:45.070Z,76192
2016-08-25T09:49:45.100Z,79232
2016-08-25T09:50:45.077Z,84448
2016-08-25T09:51:45.071Z,87584
2016-08-25T09:52:45.078Z,86752
2016-08-25T09:53:45.083Z,84992
2016-08-25T09:54:45.112Z,83904
2016-08-25T09:55:45.084Z,83872
2016-08-25T09:56:45.079Z,82080
2016-08-25T09:57:45.085Z,80224
2016-08-25T09:58:45.793Z,78816
2016-08-25T09:59:45.082Z,77696
2016-08-25T10:00:45.083Z,76032
2016-08-25T10:01:45.091Z,74304
2016-08-25T10:02:45.076Z,72224
2016-08-25T10:03:45.065Z,69024
2016-08-25T10:04:45.077Z,68800
2016-08-25T10:05:45.073Z,73920
2016-08-25T10:06:45.103Z,95904
2016-08-25T10:07:45.091Z,128512
2016-08-25T10:08:45.061Z,150944
2016-08-25T10:09:45.080Z,132992
2016-08-25T10:10:45.068Z,107680
2016-08-25T10:11:45.089Z,87968
2016-08-25T10:12:45.083Z,76928
2016-08-25T10:13:45.072Z,74336
2016-08-25T10:14:45.070Z,74368
2016-08-25T10:15:45.082Z,80288
2016-08-25T10:16:45.110Z,87232
2016-08-25T10:17:45.076Z,89344
2016-08-25T10:18:45.118Z,84448
2016-08-25T10:19:45.104Z,83360
2016-08-25T10:20:45.109Z,82112
2016-08-25T10:21:45.093Z,79200
2016-08-25T10:22:45.106Z,77984
2016-08-25T10:23:45.087Z,79904
2016-08-25T10:24:45.087Z,78784
2016-08-25T10:25:45.104Z,78528
2016-08-25T10:26:45.115Z,83424
2016-08-25T10:27:45.095Z,85792
2016-08-25T10:28:45.087Z,85472
2016-08-25T10:29:45.069Z,87104
2016-08-25T10:30:45.107Z,91936
2016-08-25T10:31:45.075Z,96608
2016-08-25T10:32:45.097Z,97728
2016-08-25T10:33:45.090Z,94432
2016-08-25T10:34:45.076Z,90368
2016-08-25T10:35:45.110Z,90880
2016-08-25T10:36:45.074Z,94528
2016-08-25T10:37:45.075Z,97920
2016-08-25T10:38:45.106Z,96640
2016-08-25T10:39:45.098Z,92128
2016-08-25T10:40:45.097Z,90400
2016-08-25T10:41:45.084Z,93056
2016-08-25T10:42:45.081Z,94528
2016-08-25T10:43:45.098Z,91136
2016-08-25T10:44:45.083Z,87456
2016-08-25T10:45:45.089Z,89824
2016-08-25T10:46:45.092Z,91488
2016-08-25T10:47:45.101Z,91296
2016-08-25T10:48:45.107Z,94720
2016-08-25T10:49:45.095Z,102848
2016-08-25T10:50:45.086Z,106176
2016-08-25T10:51:45.074Z,105280
2016-08-25T10:52:45.088Z,107200
2016-08-25T10:53:45.058Z,110144
2016-08-25T10:54:45.085Z,112096
2016-08-25T10:55:45.091Z,109376
2016-08-25T10:56:45.109Z,99456
2016-08-25T10:57:45.082Z,91072
2016-08-25T10:58:45.094Z,91456
2016-08-25T10:59:45.077Z,92544
2016-08-25T11:00:45.061Z,89184
2016-08-25T11:01:45.089Z,83680
2016-08-25T11:02:45.061Z,81248
2016-08-25T11:03:45.085Z,85216
2016-08-25T11:04:45.105Z,89344
2016-08-25T11:05:45.071Z,91264
2016-08-25T11:06:45.098Z,91072
2016-08-25T11:07:45.094Z,91040
2016-08-25T11:08:45.227Z,94208
2016-08-25T11:09:45.110Z,94368
2016-08-25T11:10:45.063Z,88928
2016-08-25T11:11:45.072Z,85920
2016-08-25T11:12:45.090Z,93568
2016-08-25T11:13:45.075Z,103456
2016-08-25T11:14:45.078Z,105888
2016-08-25T11:15:45.109Z,98880
2016-08-25T11:16:45.110Z,96672
2016-08-25T11:17:45.102Z,112672
2016-08-25T11:18:45.094Z,133408
2016-08-25T11:19:45.083Z,149024
2016-08-25T11:20:45.096Z,155936
2016-08-25T11:21:45.093Z,153088
2016-08-25T11:22:45.084Z,141280
2016-08-25T11:23:45.095Z,122688
2016-08-25T11:24:45.074Z,105664
2016-08-25T11:25:45.088Z,99648
2016-08-25T11:26:45.068Z,95040
2016-08-25T11:27:45.089Z,94528
2016-08-25T11:28:45.117Z,96896
2016-08-25T11:29:45.099Z,99360
2016-08-25T11:30:45.065Z,103456
2016-08-25T11:31:45.094Z,106080
2016-08-25T11:32:45.075Z,106496
2016-08-25T11:33:45.068Z,104672
2016-08-25T11:34:45.064Z,102816
2016-08-25T11:35:45.090Z,101408
2016-08-25T11:36:45.117Z,99840
2016-08-25T11:37:45.108Z,97088
2016-08-25T11:38:45.090Z,93440
2016-08-25T11:39:45.095Z,91136
2016-08-25T11:40:45.086Z,92800
2016-08-25T11:41:45.109Z,94816
2016-08-25T11:42:45.088Z,95360
2016-08-25T11:43:45.072Z,94848
2016-08-25T11:45:45.095Z,92640
2016-08-25T11:46:45.079Z,93408
2016-08-25T11:47:45.103Z,93600
2016-08-25T11:48:45.087Z,93696
2016-08-25T11:49:45.104Z,92192
2016-08-25T11:50:45.113Z,91648
2016-08-25T11:51:45.777Z,91456
2016-08-25T11:52:45.095Z,92256
2016-08-25T11:53:45.101Z,93248
2016-08-25T11:54:45.113Z,94784
2016-08-25T11:55:45.128Z,97344
2016-08-25T11:56:45.065Z,100256
2016-08-25T11:57:45.083Z,103424
2016-08-25T11:58:45.086Z,105024
2016-08-25T11:59:45.094Z,104544
2016-08-25T12:00:45.097Z,104832
2016-08-25T12:01:45.083Z,105408
2016-08-25T12:02:45.067Z,105952
2016-08-25T12:03:45.068Z,107104
2016-08-25T12:04:45.074Z,107680
2016-08-25T12:05:45.104Z,108416
2016-08-25T12:06:45.098Z,109152
2016-08-25T12:07:45.094Z,107968
2016-08-25T12:08:45.286Z,106784
2016-08-25T12:09:45.102Z,107520
2016-08-25T12:10:45.082Z,107648
2016-08-25T12:11:45.066Z,108640
2016-08-25T12:12:45.071Z,108384
2016-08-25T12:13:45.076Z,106560
2016-08-25T12:14:45.100Z,104832
2016-08-25T12:15:45.090Z,104896
2016-08-25T12:16:45.059Z,106464
2016-08-25T12:17:45.081Z,106592
2016-08-25T12:18:45.074Z,107072
2016-08-25T12:19:45.089Z,107424
2016-08-25T12:20:45.072Z,107264
2016-08-25T12:21:45.082Z,106208
2016-08-25T12:22:45.069Z,106560
2016-08-25T12:23:45.105Z,106400
2016-08-25T12:24:45.081Z,105952
2016-08-25T12:25:45.082Z,104384
2016-08-25T12:26:45.785Z,102368
2016-08-25T12:27:45.055Z,100704
2016-08-25T12:28:45.082Z,100256
2016-08-25T12:29:45.056Z,100032
2016-08-25T12:30:45.097Z,98752
2016-08-25T12:31:45.075Z,96320
2016-08-25T12:32:45.091Z,94560
2016-08-25T12:33:45.074Z,92800
2016-08-25T12:34:45.080Z,89920
2016-08-25T12:35:45.071Z,90592
2016-08-25T12:36:45.095Z,109568
2016-08-25T12:37:45.087Z,138752
2016-08-25T12:38:45.071Z,155648
2016-08-25T12:39:45.086Z,144448
2016-08-25T12:40:45.078Z,121120
2016-08-25T12:41:45.089Z,103776
2016-08-25T12:42:45.075Z,101664
2016-08-25T12:43:45.095Z,97120
2016-08-25T12:44:45.109Z,92704
2016-08-25T12:45:45.093Z,94112
2016-08-25T12:46:45.085Z,94304
2016-08-25T12:47:45.072Z,85664
2016-08-25T12:48:45.090Z,89056
2016-08-25T12:49:45.077Z,98208
2016-08-25T12:50:45.079Z,100768
2016-08-25T12:51:45.082Z,102464
2016-08-25T12:52:45.079Z,102368
2016-08-25T12:53:45.067Z,99648
2016-08-25T12:54:45.085Z,96928
2016-08-25T12:55:45.093Z,97632
2016-08-25T12:56:45.078Z,102432
2016-08-25T12:57:45.072Z,107744
2016-08-25T12:58:45.095Z,100096
2016-08-25T12:59:45.074Z,93280
2016-08-25T13:00:45.065Z,89024
2016-08-25T13:01:45.087Z,88416
2016-08-25T13:02:45.077Z,91168
2016-08-25T13:03:45.085Z,88768
2016-08-25T13:04:45.091Z,89472
2016-08-25T13:05:45.092Z,95616
2016-08-25T13:06:45.077Z,102624
2016-08-25T13:07:45.091Z,103104
2016-08-25T13:08:45.172Z,99008
2016-08-25T13:09:45.106Z,90528
2016-08-25T13:10:45.097Z,85248
2016-08-25T13:11:45.068Z,88032
2016-08-25T13:12:45.093Z,92768
2016-08-25T13:13:45.091Z,96160
2016-08-25T13:14:45.084Z,97344
2016-08-25T13:15:45.078Z,99552
2016-08-25T13:16:45.082Z,100736
2016-08-25T13:17:45.082Z,101952
2016-08-25T13:18:45.166Z,104160
2016-08-25T13:19:45.074Z,108256
2016-08-25T13:20:45.061Z,109600
2016-08-25T13:21:45.090Z,105312
2016-08-25T13:22:45.092Z,96960
2016-08-25T13:23:45.071Z,94496
2016-08-25T13:24:45.091Z,97088
2016-08-25T13:25:45.758Z,101888
2016-08-25T13:26:45.076Z,102656